Time;durP1;ratioP1;P1;durP2;ratioP2;P2;SDS_P1;SDS_P2;PMS_P1;PMS_P2;Temp;Humidity;BMP_temperature;BMP_pressure;BME280_temperature;BME280_humidity;BME280_pressure;Samples;Min_cycle;Max_cycle;Signal;HPM_P1;HPM_P2
2021/09/24 00:01:41;;;;;;;14.85;10.35;;;;;;;10.28;71.38;98886.28;5058484;28;20168;-63
2021/09/24 00:04:06;;;;;;;16.63;10.65;;;;;;;10.25;71.23;98889.25;5067334;28;20031;-62
2021/09/24 00:06:32;;;;;;;17.90;10.63;;;;;;;10.20;71.50;98886.16;5055134;28;20044;-63
2021/09/24 00:08:57;;;;;;;51.17;22.08;;;;;;;10.17;71.80;98879.28;5063828;28;20112;-62
2021/09/24 00:11:23;;;;;;;58.00;24.70;;;;;;;10.16;72.05;98877.59;5063242;28;20384;-64
2021/09/24 00:13:49;;;;;;;80.25;31.15;;;;;;;10.22;72.09;98892.19;5039740;28;20086;-62
2021/09/24 00:16:15;;;;;;;76.43;30.50;;;;;;;10.26;71.98;98882.06;5069341;28;20029;-63
2021/09/24 00:18:40;;;;;;;61.22;25.88;;;;;;;10.33;71.16;98888.50;5057388;28;20025;-62
2021/09/24 00:21:06;;;;;;;56.17;23.95;;;;;;;10.31;71.18;98877.09;5061483;28;20025;-62
2021/09/24 00:23:32;;;;;;;44.83;21.27;;;;;;;10.33;71.13;98877.81;5063348;28;20056;-61
2021/09/24 00:25:57;;;;;;;33.38;17.27;;;;;;;10.37;71.43;98881.03;5054605;28;20036;-62
2021/09/24 00:28:23;;;;;;;32.65;16.75;;;;;;;10.23;70.84;98866.31;5067113;28;20075;-61
2021/09/24 00:30:52;;;;;;;25.30;13.98;;;;;;;10.13;70.97;98851.13;5058616;28;20055;-62
2021/09/24 00:33:17;;;;;;;14.73;9.75;;;;;;;10.26;71.16;98882.91;5061550;28;20330;-62
2021/09/24 00:35:43;;;;;;;18.70;11.40;;;;;;;10.25;71.10;98877.69;5066546;28;20033;-62
2021/09/24 00:38:08;;;;;;;17.92;10.48;;;;;;;10.20;71.23;98867.41;5053763;28;20465;-62
2021/09/24 00:40:36;;;;;;;25.67;14.82;;;;;;;10.17;71.22;98867.72;5066371;28;20103;-61
2021/09/24 00:43:03;;;;;;;18.65;11.02;;;;;;;10.19;71.04;98874.63;5059427;28;20024;-64
2021/09/24 00:45:28;;;;;;;15.45;8.63;;;;;;;9.74;71.33;98803.91;5058257;28;20033;-62
2021/09/24 00:47:54;;;;;;;11.60;7.82;;;;;;;10.18;71.10;98874.75;5040603;28;20103;-63
2021/09/24 00:50:19;;;;;;;9.25;7.03;;;;;;;10.17;71.17;98865.03;5065331;28;20107;-61
2021/09/24 00:52:51;;;;;;;10.73;7.38;;;;;;;10.20;71.01;98857.59;5056022;28;20123;-61
2021/09/24 00:55:16;;;;;;;11.07;7.13;;;;;;;10.13;70.87;98845.78;5060889;28;20024;-62
2021/09/24 00:57:43;;;;;;;10.02;7.25;;;;;;;10.15;71.32;98869.69;5065410;28;20054;-61
2021/09/24 01:00:08;;;;;;;9.65;6.63;;;;;;;10.12;71.45;98865.47;5054383;28;20106;-62
2021/09/24 01:02:34;;;;;;;9.38;6.75;;;;;;;9.88;71.28;98812.47;5066378;28;20072;-61
2021/09/24 01:05:00;;;;;;;9.30;6.68;;;;;;;10.18;71.68;98851.53;5058705;28;20103;-62
2021/09/24 01:07:25;;;;;;;9.82;6.80;;;;;;;10.22;71.14;98844.03;5057706;28;20049;-63
2021/09/24 01:09:51;;;;;;;8.13;6.30;;;;;;;10.23;71.19;98847.56;5065869;28;20476;-64
2021/09/24 01:12:16;;;;;;;9.95;6.65;;;;;;;10.25;70.68;98842.91;5052634;28;20530;-63
2021/09/24 01:14:42;;;;;;;13.00;6.88;;;;;;;10.16;70.85;98821.41;5064606;28;20101;-63
2021/09/24 01:17:07;;;;;;;8.50;6.43;;;;;;;10.20;70.95;98841.53;5060603;28;20652;-63
2021/09/24 01:19:33;;;;;;;14.55;6.18;;;;;;;9.96;71.07;98806.41;5057620;28;20098;-62
2021/09/24 01:21:59;;;;;;;9.93;6.50;;;;;;;10.14;71.35;98842.13;5064936;28;20731;-62
2021/09/24 01:24:25;;;;;;;9.75;6.38;;;;;;;10.10;70.83;98846.03;5043131;28;20032;-63
2021/09/24 01:26:53;;;;;;;9.38;6.70;;;;;;;10.10;71.18;98846.03;5042737;28;20040;-63
2021/09/24 01:29:21;;;;;;;10.25;6.18;;;;;;;10.05;71.00;98837.63;5059450;28;20025;-63
2021/09/24 01:31:46;;;;;;;8.93;5.95;;;;;;;10.01;71.31;98845.13;5065468;28;20024;-63
2021/09/24 01:34:12;;;;;;;8.30;5.85;;;;;;;9.76;70.76;98801.09;5038338;28;20028;-62
2021/09/24 01:36:37;;;;;;;8.10;6.07;;;;;;;9.90;70.83;98829.22;5045462;28;20461;-63
2021/09/24 01:39:09;;;;;;;9.02;5.13;;;;;;;9.92;70.20;98832.59;5061441;28;20029;-63
2021/09/24 01:41:39;;;;;;;8.65;5.47;;;;;;;9.82;70.01;98811.22;5061945;28;20029;-62
2021/09/24 01:44:05;;;;;;;6.93;5.65;;;;;;;9.61;69.88;98777.50;5053978;28;20915;-62
2021/09/24 01:46:31;;;;;;;9.15;5.32;;;;;;;9.88;69.91;98826.69;5065526;28;20029;-63
2021/09/24 01:48:56;;;;;;;7.47;4.90;;;;;;;9.62;69.25;98781.84;5057677;28;20060;-63
2021/09/24 01:51:22;;;;;;;6.07;4.78;;;;;;;9.82;68.88;98823.75;5059708;28;20029;-62
2021/09/24 01:53:48;;;;;;;7.18;4.82;;;;;;;9.77;69.19;98824.19;5046724;28;20028;-62
2021/09/24 01:56:14;;;;;;;5.15;4.63;;;;;;;9.56;69.40;98793.13;5052592;28;20066;-63
2021/09/24 01:58:39;;;;;;;5.60;4.25;;;;;;;9.67;69.14;98828.72;5063772;28;20024;-63
2021/09/24 02:01:05;;;;;;;6.75;5.00;;;;;;;9.62;69.20;98805.91;5059174;28;20024;-62
2021/09/24 02:03:30;;;;;;;6.43;4.60;;;;;;;9.43;68.88;98771.22;5057466;28;20060;-63
2021/09/24 02:05:56;;;;;;;5.22;4.30;;;;;;;9.58;68.75;98798.34;5065413;28;20040;-63
2021/09/24 02:08:21;;;;;;;4.90;3.65;;;;;;;9.55;69.19;98804.81;5053001;28;20055;-63
2021/09/24 02:10:47;;;;;;;5.63;3.80;;;;;;;9.57;69.01;98808.16;5064065;28;20041;-62
2021/09/24 02:13:12;;;;;;;5.55;4.28;;;;;;;9.52;68.96;98799.75;5060325;28;20109;-63
2021/09/24 02:15:39;;;;;;;5.32;3.97;;;;;;;9.44;69.22;98796.94;5057106;28;20029;-62
2021/09/24 02:18:05;;;;;;;5.00;3.72;;;;;;;9.42;69.53;98796.25;5047905;28;20055;-62
2021/09/24 02:20:30;;;;;;;4.05;3.55;;;;;;;9.41;69.12;98783.88;5052718;28;20017;-63
2021/09/24 02:22:56;;;;;;;4.63;3.47;;;;;;;9.44;68.82;98794.28;5062178;28;20028;-62
2021/09/24 02:25:21;;;;;;;3.80;3.15;;;;;;;9.48;68.23;98793.00;5060474;28;20493;-62
2021/09/24 02:27:47;;;;;;;3.47;2.90;;;;;;;9.45;68.25;98799.47;5054721;28;20025;-63
2021/09/24 02:30:12;;;;;;;4.57;3.38;;;;;;;9.37;67.95;98785.13;5066005;28;20460;-63
2021/09/24 02:32:38;;;;;;;6.68;2.70;;;;;;;9.18;67.72;98760.13;5055111;28;20033;-62
2021/09/24 02:35:04;;;;;;;3.42;2.83;;;;;;;9.32;67.60;98798.94;5068745;28;20111;-61
2021/09/24 02:37:30;;;;;;;3.05;2.67;;;;;;;9.31;67.92;98795.41;5057262;28;20094;-63
2021/09/24 02:39:55;;;;;;;3.28;2.58;;;;;;;9.28;67.61;98794.81;5065798;28;20052;-61
2021/09/24 02:42:21;;;;;;;2.88;2.40;;;;;;;9.19;67.37;98794.69;5053172;28;20039;-63
2021/09/24 02:44:46;;;;;;;3.55;2.55;;;;;;;9.15;66.66;98795.97;5061956;28;20377;-62
2021/09/24 02:47:12;;;;;;;2.47;1.95;;;;;;;9.05;66.50;98798.63;5049828;28;20706;-63
2021/09/24 02:49:37;;;;;;;2.65;2.20;;;;;;;8.97;66.97;98794.97;5049045;28;20060;-63
2021/09/24 02:52:06;;;;;;;5.10;2.25;;;;;;;8.90;66.89;98794.66;5066401;28;20048;-62
2021/09/24 02:54:32;;;;;;;3.92;2.25;;;;;;;8.56;66.57;98755.03;5035719;28;20034;-63
2021/09/24 02:56:57;;;;;;;2.65;2.13;;;;;;;8.62;67.27;98770.47;5061803;28;20029;-63
2021/09/24 02:59:23;;;;;;;2.60;2.25;;;;;;;8.74;66.96;98805.88;5059036;28;20033;-63
2021/09/24 03:01:48;;;;;;;3.72;1.90;;;;;;;8.68;67.01;98796.63;5053554;28;20078;-63
2021/09/24 03:04:14;;;;;;;3.17;1.80;;;;;;;8.56;66.95;98793.22;5066453;28;20036;-62
2021/09/24 03:06:40;;;;;;;3.88;1.92;;;;;;;8.47;66.92;98799.31;5053052;28;20057;-63
2021/09/24 03:09:06;;;;;;;2.72;1.70;;;;;;;8.41;66.92;98792.69;5060016;28;20910;-62
2021/09/24 03:11:32;;;;;;;3.42;2.28;;;;;;;8.24;67.29;98780.03;5062333;28;20041;-62
2021/09/24 03:13:58;;;;;;;5.20;1.90;;;;;;;8.19;67.45;98783.94;5047014;28;20052;-63
2021/09/24 03:16:24;;;;;;;2.03;1.60;;;;;;;8.08;67.90;98784.03;5043308;28;20024;-62
2021/09/24 03:18:50;;;;;;;3.63;1.98;;;;;;;7.79;68.08;98739.44;5061554;28;20033;-62
2021/09/24 03:21:15;;;;;;;4.30;2.10;;;;;;;7.98;67.75;98785.81;5059883;28;20071;-63
2021/09/24 03:23:41;;;;;;;3.58;1.70;;;;;;;7.93;67.84;98788.88;5039218;28;20080;-62
2021/09/24 03:26:06;;;;;;;4.35;1.90;;;;;;;7.87;67.99;98776.91;5061075;28;20071;-61
2021/09/24 03:28:33;;;;;;;2.83;1.95;;;;;;;7.90;67.67;98781.16;5052975;28;20032;-62
2021/09/24 03:30:59;;;;;;;4.03;1.60;;;;;;;7.86;68.02;98791.22;5061601;28;20104;-61
2021/09/24 03:33:24;;;;;;;4.63;2.08;;;;;;;7.86;68.19;98791.22;5025749;28;20482;-61
2021/09/24 03:35:50;;;;;;;4.95;2.00;;;;;;;7.90;68.11;98787.31;5064126;28;20055;-62
2021/09/24 03:38:15;;;;;;;3.10;1.73;;;;;;;7.97;67.90;98792.13;5056672;28;20409;-63
2021/09/24 03:40:41;;;;;;;3.90;1.60;;;;;;;8.02;67.30;98801.41;5066757;28;20028;-63
2021/09/24 03:43:06;;;;;;;2.17;1.60;;;;;;;8.05;67.32;98794.97;5061594;28;20028;-62
2021/09/24 03:45:32;;;;;;;3.17;2.00;;;;;;;8.10;67.32;98792.75;5059087;28;20516;-62
2021/09/24 03:47:57;;;;;;;3.72;2.10;;;;;;;8.05;67.25;98787.78;5066652;28;20047;-64
2021/09/24 03:50:24;;;;;;;4.15;3.17;;;;;;;8.12;66.99;98798.78;5056054;28;20025;-61
2021/09/24 03:52:52;;;;;;;4.93;3.60;;;;;;;8.16;67.24;98796.69;5064566;28;20035;-62
2021/09/24 03:55:17;;;;;;;4.68;3.40;;;;;;;8.01;66.82;98765.06;5063666;28;20040;-62
2021/09/24 03:57:43;;;;;;;6.60;3.50;;;;;;;8.16;66.59;98781.53;5058917;28;20033;-62
2021/09/24 04:00:09;;;;;;;7.07;3.50;;;;;;;8.27;67.03;98795.75;5037522;28;20043;-63
2021/09/24 04:02:34;;;;;;;3.53;2.50;;;;;;;8.39;66.31;98785.84;5049103;28;20385;-62
2021/09/24 04:05:00;;;;;;;4.15;2.60;;;;;;;8.55;65.79;98778.16;5060227;28;20460;-64
2021/09/24 04:07:25;;;;;;;4.40;2.50;;;;;;;8.76;65.25;98771.91;5058657;28;20045;-64
2021/09/24 04:09:51;;;;;;;2.78;2.40;;;;;;;9.73;62.93;98780.84;5067001;28;20036;-66
2021/09/24 04:12:16;;;;;;;2.35;2.05;;;;;;;11.50;57.45;98762.91;5037865;28;20041;-63
2021/09/24 04:14:42;;;;;;;4.55;2.42;;;;;;;12.19;54.73;98768.41;5067061;28;20033;-63
2021/09/24 04:17:07;;;;;;;5.60;2.58;;;;;;;12.11;54.75;98773.75;5060276;28;20044;-63
2021/09/24 04:19:33;;;;;;;6.68;2.90;;;;;;;11.88;55.35;98760.84;5056601;28;20033;-63
2021/09/24 04:21:58;;;;;;;3.60;2.45;;;;;;;11.99;54.93;98756.19;5025524;28;20095;-64
2021/09/24 04:24:24;;;;;;;3.63;2.63;;;;;;;11.70;55.19;98693.03;5066524;28;20028;-63
2021/09/24 04:26:49;;;;;;;3.10;2.55;;;;;;;11.97;55.21;98758.19;5056109;28;20377;-62
2021/09/24 04:29:15;;;;;;;3.97;2.88;;;;;;;11.74;56.33;98756.91;5043056;28;20025;-62
2021/09/24 04:31:40;;;;;;;4.50;2.95;;;;;;;11.57;56.53;98758.59;5065412;28;20078;-63
2021/09/24 04:34:06;;;;;;;4.95;3.13;;;;;;;11.26;57.36;98766.25;5055299;28;20479;-62
2021/09/24 04:36:31;;;;;;;5.68;3.55;;;;;;;10.97;58.33;98759.28;5067791;28;20021;-63
2021/09/24 04:38:57;;;;;;;7.10;3.80;;;;;;;10.78;58.95;98753.09;5041150;28;20075;-63
2021/09/24 04:41:23;;;;;;;5.78;3.50;;;;;;;10.62;59.41;98764.47;5059987;28;20439;-62
2021/09/24 04:43:49;;;;;;;6.32;3.72;;;;;;;10.47;59.97;98762.31;5066003;28;20449;-63
2021/09/24 04:46:15;;;;;;;4.32;3.35;;;;;;;10.33;60.20;98760.09;5054716;28;20041;-63
2021/09/24 04:48:40;;;;;;;5.63;3.10;;;;;;;10.11;60.52;98734.56;5063941;28;20098;-63
2021/09/24 04:51:06;;;;;;;4.43;3.38;;;;;;;10.23;60.92;98764.66;5058958;28;20020;-62
2021/09/24 04:53:32;;;;;;;4.25;2.72;;;;;;;10.13;61.31;98765.53;5058874;28;20025;-63
2021/09/24 04:55:57;;;;;;;4.68;3.00;;;;;;;10.08;61.13;98769.66;5065834;28;20146;-62
2021/09/24 04:58:23;;;;;;;6.07;3.40;;;;;;;10.04;60.99;98767.25;5054418;28;20029;-61
2021/09/24 05:00:49;;;;;;;9.43;3.25;;;;;;;10.08;61.11;98773.16;5064237;28;20025;-61
2021/09/24 05:03:15;;;;;;;5.13;3.17;;;;;;;10.01;61.51;98777.41;5059131;28;20105;-62
2021/09/24 05:05:41;;;;;;;4.13;3.05;;;;;;;10.02;61.86;98773.75;5055252;28;20163;-63
2021/09/24 05:08:07;;;;;;;7.82;3.10;;;;;;;10.00;61.21;98759.69;5067080;28;20446;-63
2021/09/24 05:10:32;;;;;;;6.07;3.40;;;;;;;10.03;60.94;98756.69;5055038;28;20028;-62
2021/09/24 05:12:57;;;;;;;3.85;3.05;;;;;;;10.17;60.76;98764.25;5063455;28;20043;-64
2021/09/24 05:15:23;;;;;;;6.93;3.25;;;;;;;10.17;60.58;98753.56;5061578;28;20028;-63
2021/09/24 05:17:49;;;;;;;7.07;2.88;;;;;;;10.28;60.19;98746.31;5054905;28;20112;-64
2021/09/24 05:20:14;;;;;;;7.80;3.05;;;;;;;10.30;59.49;98712.22;5066741;28;20041;-65
2021/09/24 05:22:41;;;;;;;5.95;3.28;;;;;;;10.88;58.29;98751.19;5055137;28;20371;-64
2021/09/24 05:25:07;;;;;;;6.07;2.90;;;;;;;11.29;56.86;98745.34;5060366;28;20508;-64
2021/09/24 05:27:32;;;;;;;4.60;2.70;;;;;;;11.78;55.77;98752.03;5061499;28;20793;-63
2021/09/24 05:29:58;;;;;;;3.83;2.60;;;;;;;12.11;53.71;98736.19;5053314;28;20063;-63
2021/09/24 05:32:24;;;;;;;5.88;2.58;;;;;;;12.33;52.70;98707.09;5067643;28;20374;-62
2021/09/24 05:34:49;;;;;;;5.57;2.92;;;;;;;12.56;51.88;98709.16;5057611;28;20055;-63
2021/09/24 05:37:15;;;;;;;6.20;2.92;;;;;;;13.17;50.51;98754.56;5060363;28;20377;-61
2021/09/24 05:39:42;;;;;;;5.20;2.85;;;;;;;13.53;49.41;98740.81;5063652;28;20035;-64
2021/09/24 05:42:07;;;;;;;5.00;3.05;;;;;;;13.84;48.43;98745.47;5053857;28;20039;-64
2021/09/24 05:44:33;;;;;;;4.03;2.72;;;;;;;13.95;48.22;98738.03;5065621;28;20033;-64
2021/09/24 05:46:58;;;;;;;4.68;2.90;;;;;;;13.83;48.08;98730.34;5057158;28;20115;-63
2021/09/24 05:49:29;;;;;;;6.40;3.40;;;;;;;13.47;48.87;98734.25;5058523;28;20104;-65
2021/09/24 05:51:54;;;;;;;5.63;3.13;;;;;;;13.16;50.09;98728.69;5065291;28;20029;-63
2021/09/24 05:54:20;;;;;;;7.63;3.10;;;;;;;12.80;50.90;98711.03;5053454;28;20044;-66
2021/09/24 05:56:46;;;;;;;6.43;3.70;;;;;;;12.42;51.89;98699.88;5064069;28;20025;-62
2021/09/24 05:59:11;;;;;;;5.45;3.60;;;;;;;12.18;52.87;98696.97;5059960;28;20031;-65
2021/09/24 06:01:37;;;;;;;4.95;3.53;;;;;;;12.27;52.43;98718.44;5051432;28;20028;-62
2021/09/24 06:04:02;;;;;;;7.20;3.63;;;;;;;12.04;53.26;98698.41;5066752;28;20067;-65
2021/09/24 06:06:29;;;;;;;8.02;3.53;;;;;;;12.14;53.67;98716.22;5053102;28;20486;-63
2021/09/24 06:08:54;;;;;;;4.88;3.45;;;;;;;12.25;52.99;98707.03;5062524;28;20112;-63
2021/09/24 06:11:20;;;;;;;7.28;3.58;;;;;;;12.17;52.11;98646.97;5058566;28;20090;-62
2021/09/24 06:13:45;;;;;;;7.28;3.38;;;;;;;12.90;51.05;98714.41;5064706;28;20209;-63
2021/09/24 06:16:12;;;;;;;5.78;3.00;;;;;;;13.24;50.01;98698.28;5051921;28;20044;-63
2021/09/24 06:18:38;;;;;;;5.78;3.42;;;;;;;13.46;49.59;98711.06;5064865;28;20852;-63
2021/09/24 06:21:03;;;;;;;7.22;3.38;;;;;;;13.68;49.00;98697.94;5059037;28;20035;-63
2021/09/24 06:23:31;;;;;;;5.03;3.30;;;;;;;13.91;48.79;98708.78;5056101;28;20108;-64
2021/09/24 06:25:59;;;;;;;5.57;3.47;;;;;;;13.87;47.89;98709.31;5049680;28;20086;-64
2021/09/24 06:28:26;;;;;;;4.53;3.22;;;;;;;13.94;47.71;98686.06;5065447;28;20108;-63
2021/09/24 06:30:51;;;;;;;5.47;3.20;;;;;;;14.70;46.68;98696.28;5047434;28;20457;-64
2021/09/24 06:33:17;;;;;;;7.85;3.10;;;;;;;15.96;43.61;98699.63;5050808;28;20046;-64
2021/09/24 06:35:43;;;;;;;6.20;3.13;;;;;;;16.38;42.24;98703.47;5069247;28;20082;-64
2021/09/24 06:38:08;;;;;;;5.93;3.50;;;;;;;16.60;41.77;98695.41;5048679;28;20041;-63
2021/09/24 06:40:34;;;;;;;8.02;3.13;;;;;;;17.39;39.90;98690.16;5063571;28;20103;-64
2021/09/24 06:42:59;;;;;;;4.35;2.95;;;;;;;19.91;35.13;98710.31;5057577;28;20033;-63
2021/09/24 06:45:26;;;;;;;15.30;2.90;;;;;;;22.37;30.47;98705.44;5056659;28;20033;-65
2021/09/24 06:47:53;;;;;;;3.92;2.92;;;;;;;22.67;29.76;98698.41;5051299;28;20044;-65
2021/09/24 06:50:19;;;;;;;9.45;3.00;;;;;;;21.80;30.87;98696.44;5051412;28;20228;-64
2021/09/24 06:52:45;;;;;;;5.60;3.28;;;;;;;20.90;31.83;98703.88;5062319;28;20032;-64
2021/09/24 06:55:11;;;;;;;5.07;2.90;;;;;;;19.86;33.58;98712.81;5059296;28;20090;-66
2021/09/24 06:57:37;;;;;;;5.72;3.08;;;;;;;18.78;35.54;98712.72;5055427;28;20040;-68
2021/09/24 07:00:05;;;;;;;6.55;3.28;;;;;;;17.81;37.97;98704.56;5065475;28;20391;-67
2021/09/24 07:02:32;;;;;;;6.60;3.28;;;;;;;16.79;39.11;98702.06;5048455;28;20432;-64
2021/09/24 07:04:57;;;;;;;6.13;3.00;;;;;;;16.28;39.96;98690.28;5041949;28;20021;-62
2021/09/24 07:07:23;;;;;;;6.25;2.90;;;;;;;15.73;41.60;98689.72;5060178;28;20107;-62
2021/09/24 07:09:48;;;;;;;4.55;3.10;;;;;;;15.17;43.36;98699.00;5067069;28;20440;-67
2021/09/24 07:12:14;;;;;;;4.30;3.65;;;;;;;14.71;44.36;98703.41;5056943;28;20075;-62
2021/09/24 07:14:39;;;;;;;6.30;2.85;;;;;;;14.28;45.02;98679.53;5067850;28;20040;-60
2021/09/24 07:17:05;;;;;;;6.75;3.20;;;;;;;13.87;46.74;98699.38;5061456;28;20024;-59
2021/09/24 07:19:31;;;;;;;4.97;2.90;;;;;;;13.56;47.46;98702.81;5061094;28;20468;-59
2021/09/24 07:21:57;;;;;;;7.20;3.25;;;;;;;13.34;48.35;98680.97;5068356;28;20055;-65
2021/09/24 07:24:22;;;;;;;6.53;3.50;;;;;;;13.25;48.97;98681.16;5055907;28;20400;-65
2021/09/24 07:26:48;;;;;;;4.60;2.95;;;;;;;13.18;49.04;98681.84;5066681;28;20029;-64
2021/09/24 07:29:15;;;;;;;4.55;2.70;;;;;;;13.09;49.39;98704.34;5062420;28;20032;-65
2021/09/24 07:31:40;;;;;;;4.53;2.50;;;;;;;12.88;49.84;98696.78;5059121;28;20428;-65
2021/09/24 07:34:06;;;;;;;5.38;2.55;;;;;;;12.64;50.63;98671.56;5067336;28;20024;-63
2021/09/24 07:36:31;;;;;;;3.42;2.70;;;;;;;12.65;50.93;98665.19;5069145;28;20449;-66
2021/09/24 07:38:57;;;;;;;5.35;2.60;;;;;;;12.57;51.20;98676.75;5058869;28;20024;-64
2021/09/24 07:41:23;;;;;;;5.07;2.63;;;;;;;12.60;51.34;98675.59;5061113;28;20029;-63
2021/09/24 07:43:52;;;;;;;4.53;2.25;;;;;;;12.56;51.70;98666.19;5022316;28;20129;-65
2021/09/24 07:46:18;;;;;;;5.45;2.63;;;;;;;12.61;52.08;98691.53;5054208;28;20073;-65
2021/09/24 07:48:44;;;;;;;3.72;2.70;;;;;;;12.59;52.03;98681.97;5064536;28;20082;-65
2021/09/24 07:51:11;;;;;;;7.60;3.30;;;;;;;12.47;52.55;98673.41;5060448;28;20028;-64
2021/09/24 07:53:37;;;;;;;4.82;3.50;;;;;;;12.27;53.31;98688.91;5058828;28;20028;-65
2021/09/24 07:56:04;;;;;;;6.50;3.13;;;;;;;12.02;53.18;98683.47;5051107;28;20085;-65
2021/09/24 07:58:29;;;;;;;4.93;3.60;;;;;;;11.88;53.80;98664.28;5055393;28;20661;-68
2021/09/24 08:00:55;;;;;;;8.45;3.58;;;;;;;11.88;54.01;98699.16;5063458;28;20074;-64
2021/09/24 08:03:21;;;;;;;12.07;3.70;;;;;;;11.84;54.77;98684.38;5061076;28;20102;-67
2021/09/24 08:05:46;;;;;;;5.43;3.47;;;;;;;11.90;55.26;98689.09;5056475;28;20483;-65
2021/09/24 08:08:12;;;;;;;4.05;3.35;;;;;;;11.98;54.43;98685.63;5066872;28;20047;-65
2021/09/24 08:10:37;;;;;;;5.78;3.70;;;;;;;12.01;54.61;98663.88;5056466;28;20108;-63
2021/09/24 08:13:04;;;;;;;9.65;3.58;;;;;;;12.12;54.29;98669.94;5059480;28;20080;-65
2021/09/24 08:15:30;;;;;;;6.20;3.30;;;;;;;12.01;54.62;98657.66;5039749;28;20044;-65
2021/09/24 08:17:56;;;;;;;7.25;3.97;;;;;;;11.86;55.08;98660.94;5050036;28;20479;-65
2021/09/24 08:20:21;;;;;;;7.78;3.67;;;;;;;11.75;55.73;98648.66;5065988;28;20032;-65
2021/09/24 08:22:47;;;;;;;8.13;4.30;;;;;;;11.54;55.94;98627.56;5043254;28;20032;-63
2021/09/24 08:25:15;;;;;;;7.00;3.75;;;;;;;11.72;55.66;98667.75;5044043;28;20452;-66
2021/09/24 08:27:41;;;;;;;8.68;4.43;;;;;;;11.58;56.58;98650.41;5046843;28;20392;-66
2021/09/24 08:30:10;;;;;;;6.82;4.30;;;;;;;11.62;56.48;98643.72;5049995;28;20035;-67
2021/09/24 08:32:37;;;;;;;5.50;3.55;;;;;;;11.50;56.70;98639.63;5054478;28;20108;-67
2021/09/24 08:35:09;;;;;;;8.15;4.13;;;;;;;11.63;56.81;98647.22;5056215;28;20181;-65
2021/09/24 08:37:36;;;;;;;8.60;3.97;;;;;;;11.75;56.36;98653.16;5058483;28;20116;-66
2021/09/24 08:40:03;;;;;;;4.72;3.97;;;;;;;11.76;56.52;98665.56;5066221;28;20064;-66
2021/09/24 08:42:29;;;;;;;7.28;4.15;;;;;;;11.69;56.95;98640.41;5047434;28;20024;-67
2021/09/24 08:44:55;;;;;;;4.80;4.07;;;;;;;11.63;57.31;98645.41;5063505;28;20033;-67
2021/09/24 08:47:20;;;;;;;8.27;4.18;;;;;;;11.63;57.49;98652.59;5059886;28;20078;-65
2021/09/24 08:49:46;;;;;;;5.30;3.65;;;;;;;11.59;56.80;98638.69;5038386;28;20037;-66
2021/09/24 08:52:13;;;;;;;10.07;4.68;;;;;;;11.56;57.44;98644.34;5067972;28;20040;-66
2021/09/24 08:54:39;;;;;;;9.55;4.20;;;;;;;11.63;56.93;98629.31;5055021;28;20028;-65
2021/09/24 08:57:05;;;;;;;5.18;3.95;;;;;;;12.20;56.40;98633.22;5061592;28;20082;-64
2021/09/24 08:59:30;;;;;;;8.93;3.90;;;;;;;12.97;54.82;98625.09;5061697;28;20039;-64
2021/09/24 09:02:07;;;;;;;4.88;3.88;;;;;;;13.67;52.46;98636.22;5054849;28;20041;-64
2021/09/24 09:04:36;;;;;;;5.75;4.43;;;;;;;14.07;51.41;98612.84;5064578;28;20460;-65
2021/09/24 09:07:10;;;;;;;6.38;4.50;;;;;;;14.29;51.14;98621.16;5057550;28;20345;-65
2021/09/24 09:09:38;;;;;;;6.70;4.15;;;;;;;14.33;50.60;98627.84;5055366;28;20816;-64
2021/09/24 09:12:12;;;;;;;7.43;4.32;;;;;;;14.28;50.82;98612.22;5049236;28;20115;-65
2021/09/24 09:14:39;;;;;;;7.60;3.90;;;;;;;14.20;50.31;98615.78;5056593;28;20039;-65
2021/09/24 09:17:25;;;;;;;7.15;4.25;;;;;;;14.35;50.53;98613.22;5060542;28;20043;-65
2021/09/24 09:20:07;;;;;;;7.47;4.40;;;;;;;14.29;50.59;98613.91;5065850;28;20074;-64
2021/09/24 09:22:33;;;;;;;5.25;4.00;;;;;;;14.26;49.85;98616.13;5021081;28;20511;-65
2021/09/24 09:24:58;;;;;;;9.07;4.07;;;;;;;14.23;49.19;98603.00;5061070;28;20029;-66
2021/09/24 09:27:24;;;;;;;4.88;4.05;;;;;;;14.24;49.54;98610.91;5061428;28;20461;-64
2021/09/24 09:30:12;;;;;;;6.50;3.88;;;;;;;14.63;49.25;98609.13;5036425;28;20043;-67
2021/09/24 09:32:39;;;;;;;6.18;3.60;;;;;;;14.33;48.89;98614.38;5041356;28;20021;-65
2021/09/24 09:35:06;;;;;;;5.55;3.40;;;;;;;14.22;48.88;98615.63;5068895;28;20333;-65
2021/09/24 09:37:35;;;;;;;6.00;3.78;;;;;;;13.99;49.57;98599.47;5039702;28;20033;-65
2021/09/24 09:40:05;;;;;;;4.43;3.47;;;;;;;13.86;49.46;98600.84;5033907;28;20033;-65
2021/09/24 09:42:35;;;;;;;5.40;3.45;;;;;;;14.00;49.10;98603.81;5053990;28;20107;-64
2021/09/24 09:45:01;;;;;;;7.05;3.00;;;;;;;14.02;49.03;98607.19;5060358;28;20029;-65
2021/09/24 09:47:32;;;;;;;7.57;3.70;;;;;;;14.05;49.31;98614.88;5031323;28;20393;-66
2021/09/24 09:50:20;;;;;;;4.43;3.22;;;;;;;14.09;49.83;98607.28;5066065;28;20043;-63
2021/09/24 09:53:07;;;;;;;6.88;3.20;;;;;;;13.85;49.80;98572.28;5052679;28;20028;-66
2021/09/24 09:55:36;;;;;;;4.05;3.05;;;;;;;13.78;49.82;98592.81;5057613;28;20477;-65
2021/09/24 09:58:08;;;;;;;5.70;3.83;;;;;;;13.50;50.52;98593.25;5048630;28;20025;-65
2021/09/24 10:00:36;;;;;;;6.15;3.85;;;;;;;13.17;51.49;98607.59;5053629;28;20028;-65
2021/09/24 10:03:07;;;;;;;4.72;3.35;;;;;;;13.07;52.36;98605.09;5061871;28;20028;-67
2021/09/24 10:05:42;;;;;;;5.70;3.92;;;;;;;12.95;52.65;98609.13;5060988;28;20040;-69
2021/09/24 10:08:23;;;;;;;8.63;3.95;;;;;;;12.83;53.19;98605.94;5052571;28;20033;-69
2021/09/24 10:11:03;;;;;;;5.00;3.80;;;;;;;12.62;54.11;98612.66;5061279;28;20037;-68
2021/09/24 10:13:33;;;;;;;4.70;3.78;;;;;;;12.08;54.98;98563.94;5058134;28;20536;-70
2021/09/24 10:15:59;;;;;;;6.10;4.07;;;;;;;12.20;55.29;98587.63;5036512;28;20039;-68
2021/09/24 10:18:25;;;;;;;6.55;4.22;;;;;;;12.03;55.87;98599.31;5064547;28;20040;-68
2021/09/24 10:20:51;;;;;;;8.40;4.35;;;;;;;12.14;56.21;98608.88;5056780;28;20025;-68
2021/09/24 10:23:17;;;;;;;6.75;4.25;;;;;;;12.17;56.06;98604.06;5059483;28;20037;-67
2021/09/24 10:25:47;;;;;;;5.47;3.83;;;;;;;12.20;55.84;98581.44;5062840;28;20051;-70
2021/09/24 10:28:13;;;;;;;7.13;4.05;;;;;;;12.40;55.96;98613.31;5051357;28;20043;-69
2021/09/24 10:30:40;;;;;;;6.53;4.25;;;;;;;12.49;55.62;98615.84;5062747;28;20057;-69
2021/09/24 10:33:14;;;;;;;5.80;3.60;;;;;;;12.60;55.41;98611.16;5058685;28;20033;-71
2021/09/24 10:35:46;;;;;;;7.15;3.78;;;;;;;12.64;54.75;98616.00;5050095;28;20087;-69
2021/09/24 10:38:12;;;;;;;6.28;3.40;;;;;;;12.23;54.97;98569.50;5052975;28;20045;-70
2021/09/24 10:41:05;;;;;;;3.65;3.20;;;;;;;12.38;55.14;98604.56;5067275;28;20380;-69
2021/09/24 10:43:41;;;;;;;3.92;3.28;;;;;;;12.27;55.26;98613.78;5065159;28;20036;-68
2021/09/24 10:46:25;;;;;;;3.38;2.30;;;;;;;12.24;54.79;98623.03;5056239;28;20043;-68
2021/09/24 10:49:16;;;;;;;2.42;2.22;;;;;;;12.05;54.34;98616.94;5060578;28;20444;-68
2021/09/24 10:52:09;;;;;;;5.35;2.58;;;;;;;12.05;54.43;98618.75;5067078;28;20112;-67
2021/09/24 10:54:53;;;;;;;2.97;2.10;;;;;;;12.01;54.05;98601.31;5046231;28;20067;-69
2021/09/24 10:57:18;;;;;;;3.20;2.13;;;;;;;11.78;53.39;98599.19;5062641;28;20079;-68
2021/09/24 10:59:44;;;;;;;3.45;2.22;;;;;;;11.87;52.87;98597.38;5065425;28;20434;-69
2021/09/24 11:02:41;;;;;;;5.10;2.45;;;;;;;12.03;53.35;98608.22;5072268;28;20167;-69
2021/09/24 11:05:08;;;;;;;3.67;2.13;;;;;;;11.99;52.23;98595.25;5060818;28;20028;-68
2021/09/24 11:07:35;;;;;;;3.97;2.17;;;;;;;12.05;52.51;98613.41;5059283;28;20081;-69
2021/09/24 11:10:04;;;;;;;2.00;1.75;;;;;;;12.16;51.74;98626.53;5060861;28;20033;-69
2021/09/24 11:12:30;;;;;;;3.47;2.08;;;;;;;12.23;51.03;98617.81;5052844;28;20138;-68
2021/09/24 11:15:14;;;;;;;4.65;1.90;;;;;;;12.46;51.24;98600.06;5060638;28;20021;-69
2021/09/24 11:17:46;;;;;;;6.05;1.95;;;;;;;12.47;50.80;98601.75;5058390;28;20102;-70
2021/09/24 11:20:35;;;;;;;3.40;2.20;;;;;;;12.52;51.04;98595.88;5066163;28;20139;-69
2021/09/24 11:23:33;;;;;;;5.55;2.25;;;;;;;12.53;51.34;98608.28;5063110;28;20500;-67
2021/09/24 11:26:09;;;;;;;2.83;2.28;;;;;;;12.38;51.24;98604.56;5068205;28;20031;-69
2021/09/24 11:28:35;;;;;;;4.63;2.47;;;;;;;12.29;51.32;98612.63;5023479;28;20039;-68
2021/09/24 11:31:01;;;;;;;3.42;2.40;;;;;;;11.78;51.02;98530.34;5063583;28;20349;-70
2021/09/24 11:33:59;;;;;;;7.15;2.47;;;;;;;12.39;51.76;98612.47;5052617;28;20104;-70
2021/09/24 11:36:57;;;;;;;3.80;2.58;;;;;;;12.28;52.07;98584.13;5067883;28;20040;-70